sensor_id;sensor_type;location;lat;lon;timestamp;pressure;altitude;pressure_sealevel;temperature;humidity
59240;BME280;45010;53.640;10.578;2023-02-19T00:00:22;100783.31;;;24.89;34.64
59240;BME280;45010;53.640;10.578;2023-02-19T00:03:23;100794.00;;;24.89;34.73
59240;BME280;45010;53.640;10.578;2023-02-19T00:06:24;100776.03;;;24.84;34.78
59240;BME280;45010;53.640;10.578;2023-02-19T00:09:25;100789.47;;;24.90;34.67
59240;BME280;45010;53.640;10.578;2023-02-19T00:12:26;100784.13;;;24.90;34.68
59240;BME280;45010;53.640;10.578;2023-02-19T00:15:26;100791.91;;;24.91;34.68
59240;BME280;45010;53.640;10.578;2023-02-19T00:18:26;100785.78;;;24.91;34.58
59240;BME280;45010;53.640;10.578;2023-02-19T00:21:27;100774.38;;;24.83;34.58
59240;BME280;45010;53.640;10.578;2023-02-19T00:24:28;100789.00;;;24.93;34.64
59240;BME280;45010;53.640;10.578;2023-02-19T00:27:29;100774.63;;;24.94;34.48
59240;BME280;45010;53.640;10.578;2023-02-19T00:30:29;100776.25;;;24.95;34.63
59240;BME280;45010;53.640;10.578;2023-02-19T00:33:29;100780.78;;;24.94;34.46
59240;BME280;45010;53.640;10.578;2023-02-19T00:36:31;100753.50;;;24.80;34.66
59240;BME280;45010;53.640;10.578;2023-02-19T00:39:32;100770.91;;;24.95;34.70
59240;BME280;45010;53.640;10.578;2023-02-19T00:42:33;100773.56;;;24.95;34.49
59240;BME280;45010;53.640;10.578;2023-02-19T00:45:33;100778.69;;;24.96;34.38
59240;BME280;45010;53.640;10.578;2023-02-19T00:48:34;100768.00;;;24.96;34.49
59240;BME280;45010;53.640;10.578;2023-02-19T00:51:36;100768.84;;;24.97;34.34
59240;BME280;45010;53.640;10.578;2023-02-19T00:54:36;100768.84;;;24.97;34.83
59240;BME280;45010;53.640;10.578;2023-02-19T00:57:36;100770.47;;;24.98;34.89
59240;BME280;45010;53.640;10.578;2023-02-19T01:00:37;100773.13;;;24.98;34.20
59240;BME280;45010;53.640;10.578;2023-02-19T01:03:38;100774.97;;;24.97;34.38
59240;BME280;45010;53.640;10.578;2023-02-19T01:06:38;100782.75;;;24.99;34.21
59240;BME280;45010;53.640;10.578;2023-02-19T01:09:39;100792.59;;;24.98;34.30
59240;BME280;45010;53.640;10.578;2023-02-19T01:12:39;100795.50;;;24.97;34.23
59240;BME280;45010;53.640;10.578;2023-02-19T01:15:39;100798.75;;;24.99;34.35
59240;BME280;45010;53.640;10.578;2023-02-19T01:18:40;100782.97;;;25.09;34.14
59240;BME280;45010;53.640;10.578;2023-02-19T01:21:40;100778.78;;;24.90;34.29
59240;BME280;45010;53.640;10.578;2023-02-19T01:24:40;100800.59;;;24.98;34.30
59240;BME280;45010;53.640;10.578;2023-02-19T01:27:41;100795.25;;;24.98;34.26
59240;BME280;45010;53.640;10.578;2023-02-19T01:30:41;100793.41;;;24.99;34.28
59240;BME280;45010;53.640;10.578;2023-02-19T01:33:56;100790.63;;;24.94;34.22
59240;BME280;45010;53.640;10.578;2023-02-19T01:36:57;100805.72;;;25.00;34.27
59240;BME280;45010;53.640;10.578;2023-02-19T01:39:57;100804.91;;;25.00;34.27
59240;BME280;45010;53.640;10.578;2023-02-19T01:42:58;100800.25;;;24.95;34.27
59240;BME280;45010;53.640;10.578;2023-02-19T01:45:58;100786.78;;;24.90;34.44
59240;BME280;45010;53.640;10.578;2023-02-19T01:49:09;100797.38;;;25.08;34.02
59240;BME280;45010;53.640;10.578;2023-02-19T01:52:16;100810.59;;;25.03;33.94
59240;BME280;45010;53.640;10.578;2023-02-19T01:55:18;100798.06;;;24.92;34.19
59240;BME280;45010;53.640;10.578;2023-02-19T01:58:19;100798.06;;;24.92;34.23
59240;BME280;45010;53.640;10.578;2023-02-19T02:01:19;100808.84;;;24.97;34.16
59240;BME280;45010;53.640;10.578;2023-02-19T02:04:20;100797.13;;;24.98;34.40
59240;BME280;45010;53.640;10.578;2023-02-19T02:07:20;100801.19;;;25.01;34.12
59240;BME280;45010;53.640;10.578;2023-02-19T02:10:40;100805.72;;;25.00;34.00
59240;BME280;45010;53.640;10.578;2023-02-19T02:13:42;100789.59;;;25.07;33.90
59240;BME280;45010;53.640;10.578;2023-02-19T02:27:01;100796.31;;;24.97;34.00
59240;BME280;45010;53.640;10.578;2023-02-19T02:30:41;100790.63;;;24.94;33.96
59240;BME280;45010;53.640;10.578;2023-02-19T02:34:21;100798.75;;;24.99;34.07
59240;BME280;45010;53.640;10.578;2023-02-19T02:37:24;100783.56;;;24.88;33.90
59240;BME280;45010;53.640;10.578;2023-02-19T02:40:27;100795.63;;;25.02;33.73
59240;BME280;45010;53.640;10.578;2023-02-19T02:43:27;100795.88;;;25.01;33.63
59240;BME280;45010;53.640;10.578;2023-02-19T02:46:33;100793.19;;;25.01;33.66
59240;BME280;45010;53.640;10.578;2023-02-19T02:49:34;100797.13;;;24.98;33.66
59240;BME280;45010;53.640;10.578;2023-02-19T02:52:58;100799.81;;;24.98;33.56
59240;BME280;45010;53.640;10.578;2023-02-19T02:56:19;100801.31;;;24.94;33.47
59240;BME280;45010;53.640;10.578;2023-02-19T02:59:22;100804.19;;;24.92;33.54
59240;BME280;45010;53.640;10.578;2023-02-19T03:02:27;100781.38;;;24.84;33.46
59240;BME280;45010;53.640;10.578;2023-02-19T03:05:30;100786.22;;;24.88;33.47
59240;BME280;45010;53.640;10.578;2023-02-19T03:08:56;100783.44;;;24.82;33.53
59240;BME280;45010;53.640;10.578;2023-02-19T03:12:01;100785.50;;;24.80;33.55
59240;BME280;45010;53.640;10.578;2023-02-19T03:15:22;100780.59;;;24.77;33.61
59240;BME280;45010;53.640;10.578;2023-02-19T03:18:45;100786.41;;;24.74;33.51
59240;BME280;45010;53.640;10.578;2023-02-19T03:22:16;100756.50;;;24.48;33.68
59240;BME280;45010;53.640;10.578;2023-02-19T03:25:22;100786.16;;;24.64;33.66
59240;BME280;45010;53.640;10.578;2023-02-19T03:28:46;100794.78;;;24.66;33.46
59240;BME280;45010;53.640;10.578;2023-02-19T03:32:11;100800.56;;;24.63;33.56
59240;BME280;45010;53.640;10.578;2023-02-19T03:35:17;100789.19;;;24.55;33.77
59240;BME280;45010;53.640;10.578;2023-02-19T03:38:20;100799.38;;;24.58;33.55
59240;BME280;45010;53.640;10.578;2023-02-19T03:41:52;100805.19;;;24.55;33.64
59240;BME280;45010;53.640;10.578;2023-02-19T03:45:13;100807.25;;;24.53;33.48
59240;BME280;45010;53.640;10.578;2023-02-19T03:48:33;100805.63;;;24.52;33.80
59240;BME280;45010;53.640;10.578;2023-02-19T03:51:42;100813.03;;;24.50;33.58
59240;BME280;45010;53.640;10.578;2023-02-19T03:54:50;100816.16;;;24.47;33.67
59240;BME280;45010;53.640;10.578;2023-02-19T04:01:19;100821.38;;;24.42;33.87
59240;BME280;45010;53.640;10.578;2023-02-19T04:04:27;100818.13;;;24.40;33.66
59240;BME280;45010;53.640;10.578;2023-02-19T04:07:34;100814.03;;;24.37;33.59
59240;BME280;45010;53.640;10.578;2023-02-19T04:10:37;100822.28;;;24.36;34.06
59240;BME280;45010;53.640;10.578;2023-02-19T04:13:49;100829.69;;;24.34;33.84
59240;BME280;45010;53.640;10.578;2023-02-19T04:16:58;100822.59;;;24.27;34.08
59240;BME280;45010;53.640;10.578;2023-02-19T04:20:03;100821.09;;;24.31;33.88
59240;BME280;45010;53.640;10.578;2023-02-19T04:23:05;100821.53;;;24.28;34.02
59240;BME280;45010;53.640;10.578;2023-02-19T04:26:06;100830.59;;;24.27;33.96
59240;BME280;45010;53.640;10.578;2023-02-19T04:29:07;100838.00;;;24.25;33.86
59240;BME280;45010;53.640;10.578;2023-02-19T04:32:09;100838.91;;;24.19;33.96
59240;BME280;45010;53.640;10.578;2023-02-19T04:35:10;100837.66;;;24.22;33.80
59240;BME280;45010;53.640;10.578;2023-02-19T04:38:10;100849.09;;;24.22;34.00
59240;BME280;45010;53.640;10.578;2023-02-19T04:41:11;100849.56;;;24.19;34.08
59240;BME280;45010;53.640;10.578;2023-02-19T04:44:11;100850.63;;;24.18;33.90
59240;BME280;45010;53.640;10.578;2023-02-19T04:47:12;100856.97;;;24.17;33.93
59240;BME280;45010;53.640;10.578;2023-02-19T04:50:12;100841.34;;;24.02;33.86
59240;BME280;45010;53.640;10.578;2023-02-19T04:53:12;100869.69;;;24.15;34.08
59240;BME280;45010;53.640;10.578;2023-02-19T04:56:14;100835.06;;;23.96;34.04
59240;BME280;45010;53.640;10.578;2023-02-19T04:59:16;100868.38;;;24.05;34.10
59240;BME280;45010;53.640;10.578;2023-02-19T05:02:16;100874.88;;;24.10;34.07
59240;BME280;45010;53.640;10.578;2023-02-19T05:05:16;100879.63;;;24.08;34.08
59240;BME280;45010;53.640;10.578;2023-02-19T05:08:17;100877.97;;;24.07;34.19
59240;BME280;45010;53.640;10.578;2023-02-19T05:11:17;100866.66;;;23.92;34.21
59240;BME280;45010;53.640;10.578;2023-02-19T05:14:17;100881.28;;;24.02;34.36
59240;BME280;45010;53.640;10.578;2023-02-19T05:17:18;100881.75;;;23.99;34.23
59240;BME280;45010;53.640;10.578;2023-02-19T05:20:18;100891.94;;;24.02;34.17
59240;BME280;45010;53.640;10.578;2023-02-19T05:23:19;100884.06;;;23.95;34.18
59240;BME280;45010;53.640;10.578;2023-02-19T05:26:21;100883.47;;;23.93;34.02
59240;BME280;45010;53.640;10.578;2023-02-19T05:29:22;100897.16;;;23.97;34.31
59240;BME280;45010;53.640;10.578;2023-02-19T05:32:22;100900.03;;;23.95;34.38
59240;BME280;45010;53.640;10.578;2023-02-19T05:35:23;100901.06;;;23.94;34.49
59240;BME280;45010;53.640;10.578;2023-02-19T05:38:24;100908.47;;;23.92;34.42
59240;BME280;45010;53.640;10.578;2023-02-19T05:41:27;100888.94;;;23.80;34.50
59240;BME280;45010;53.640;10.578;2023-02-19T05:44:28;100920.16;;;23.91;34.42
59240;BME280;45010;53.640;10.578;2023-02-19T05:47:28;100914.25;;;23.89;34.22
59240;BME280;45010;53.640;10.578;2023-02-19T05:50:30;100917.94;;;23.88;34.15
59240;BME280;45010;53.640;10.578;2023-02-19T05:53:31;100924.28;;;23.87;34.22
59240;BME280;45010;53.640;10.578;2023-02-19T05:56:36;100919.84;;;23.81;34.08
59240;BME280;45010;53.640;10.578;2023-02-19T05:59:37;100936.44;;;23.83;34.55
59240;BME280;45010;53.640;10.578;2023-02-19T06:02:38;100930.94;;;23.77;34.29
59240;BME280;45010;53.640;10.578;2023-02-19T06:05:38;100949.13;;;23.81;34.25
59240;BME280;45010;53.640;10.578;2023-02-19T06:08:38;100939.38;;;23.74;34.64
59240;BME280;45010;53.640;10.578;2023-02-19T06:11:39;100958.16;;;23.80;34.46
59240;BME280;45010;53.640;10.578;2023-02-19T06:14:39;100960.03;;;23.79;34.60
59240;BME280;45010;53.640;10.578;2023-02-19T06:17:39;100965.56;;;23.77;34.57
59240;BME280;45010;53.640;10.578;2023-02-19T06:20:40;100978.06;;;23.77;34.70
59240;BME280;45010;53.640;10.578;2023-02-19T06:23:40;100966.44;;;23.71;34.67
59240;BME280;45010;53.640;10.578;2023-02-19T06:26:41;100987.09;;;23.76;34.61
59240;BME280;45010;53.640;10.578;2023-02-19T06:29:41;100999.59;;;23.75;34.47
59240;BME280;45010;53.640;10.578;2023-02-19T06:32:42;101006.78;;;23.75;34.43
59240;BME280;45010;53.640;10.578;2023-02-19T06:35:42;101012.31;;;23.73;34.78
59240;BME280;45010;53.640;10.578;2023-02-19T06:38:43;101004.59;;;23.65;34.63
59240;BME280;45010;53.640;10.578;2023-02-19T06:41:43;101006.22;;;23.66;34.68
59240;BME280;45010;53.640;10.578;2023-02-19T06:44:43;101014.38;;;23.71;34.51
59240;BME280;45010;53.640;10.578;2023-02-19T06:47:44;101021.78;;;23.69;34.78
59240;BME280;45010;53.640;10.578;2023-02-19T06:50:44;101029.78;;;23.69;34.54
59240;BME280;45010;53.640;10.578;2023-02-19T06:53:45;101014.91;;;23.55;34.74
59240;BME280;45010;53.640;10.578;2023-02-19T06:56:45;101051.28;;;23.68;34.76
59240;BME280;45010;53.640;10.578;2023-02-19T06:59:45;101059.47;;;23.66;34.50
59240;BME280;45010;53.640;10.578;2023-02-19T07:02:46;101066.44;;;23.67;34.83
59240;BME280;45010;53.640;10.578;2023-02-19T07:05:46;101069.53;;;23.64;34.81
59240;BME280;45010;53.640;10.578;2023-02-19T07:08:46;101071.00;;;23.60;34.71
59240;BME280;45010;53.640;10.578;2023-02-19T07:11:47;101084.47;;;23.65;34.66
59240;BME280;45010;53.640;10.578;2023-02-19T07:14:47;101090.84;;;23.64;34.85
59240;BME280;45010;53.640;10.578;2023-02-19T07:17:48;101100.66;;;23.63;34.78
59240;BME280;45010;53.640;10.578;2023-02-19T07:20:48;101106.19;;;23.62;34.64
59240;BME280;45010;53.640;10.578;2023-02-19T07:23:48;101100.88;;;23.62;34.78
59240;BME280;45010;53.640;10.578;2023-02-19T07:26:49;101111.53;;;23.62;34.64
59240;BME280;45010;53.640;10.578;2023-02-19T07:29:49;101108.69;;;23.57;34.58
59240;BME280;45010;53.640;10.578;2023-02-19T07:32:49;101107.22;;;23.61;34.84
59240;BME280;45010;53.640;10.578;2023-02-19T07:35:50;101120.53;;;23.61;34.92
59240;BME280;45010;53.640;10.578;2023-02-19T07:38:57;101118.09;;;23.59;34.99
59240;BME280;45010;53.640;10.578;2023-02-19T07:41:58;101124.25;;;23.60;34.96
59240;BME280;45010;53.640;10.578;2023-02-19T07:44:58;101127.94;;;23.59;35.01
59240;BME280;45010;53.640;10.578;2023-02-19T07:47:59;101133.28;;;23.59;34.93
59240;BME280;45010;53.640;10.578;2023-02-19T07:51:00;101071.03;;;23.14;34.57
59240;BME280;45010;53.640;10.578;2023-02-19T07:54:01;101152.94;;;23.58;34.63
59240;BME280;45010;53.640;10.578;2023-02-19T07:57:01;101156.59;;;23.57;34.64
59240;BME280;45010;53.640;10.578;2023-02-19T08:00:02;101152.94;;;23.58;34.91
59240;BME280;45010;53.640;10.578;2023-02-19T08:03:02;101159.13;;;23.51;34.95
59240;BME280;45010;53.640;10.578;2023-02-19T08:06:04;101164.44;;;23.51;35.11
59240;BME280;45010;53.640;10.578;2023-02-19T08:09:04;101169.13;;;23.56;34.85
59240;BME280;45010;53.640;10.578;2023-02-19T08:12:05;101170.94;;;23.56;34.72
59240;BME280;45010;53.640;10.578;2023-02-19T08:15:24;101174.66;;;23.55;34.98
59240;BME280;45010;53.640;10.578;2023-02-19T08:18:25;101173.03;;;23.54;35.00
59240;BME280;45010;53.640;10.578;2023-02-19T08:21:26;101170.63;;;23.45;34.72
59240;BME280;45010;53.640;10.578;2023-02-19T08:24:26;101189.00;;;23.54;34.46
59240;BME280;45010;53.640;10.578;2023-02-19T08:27:26;101192.69;;;23.53;34.54
59240;BME280;45010;53.640;10.578;2023-02-19T08:30:28;101190.03;;;23.53;34.68
59240;BME280;45010;53.640;10.578;2023-02-19T08:33:29;101191.47;;;23.48;34.70
59240;BME280;45010;53.640;10.578;2023-02-19T08:36:30;101194.53;;;23.52;35.03
59240;BME280;45010;53.640;10.578;2023-02-19T08:39:31;101202.50;;;23.52;34.76
59240;BME280;45010;53.640;10.578;2023-02-19T08:42:31;101197.19;;;23.52;35.09
59240;BME280;45010;53.640;10.578;2023-02-19T08:45:31;101200.06;;;23.50;34.83
59240;BME280;45010;53.640;10.578;2023-02-19T08:48:32;101207.88;;;23.45;35.00
59240;BME280;45010;53.640;10.578;2023-02-19T08:51:33;101221.34;;;23.50;35.01
59240;BME280;45010;53.640;10.578;2023-02-19T08:54:33;101221.34;;;23.50;35.21
59240;BME280;45010;53.640;10.578;2023-02-19T08:57:36;101224.44;;;23.47;35.11
59240;BME280;45010;53.640;10.578;2023-02-19T09:00:37;101236.72;;;23.48;34.87
59240;BME280;45010;53.640;10.578;2023-02-19T09:03:37;101253.91;;;23.53;35.17
59240;BME280;45010;53.640;10.578;2023-02-19T09:06:38;101242.69;;;23.44;34.80
59240;BME280;45010;53.640;10.578;2023-02-19T09:09:39;101250.03;;;23.48;34.84
59240;BME280;45010;53.640;10.578;2023-02-19T09:12:40;101261.72;;;23.47;35.00
59240;BME280;45010;53.640;10.578;2023-02-19T09:15:40;101282.38;;;23.52;34.89
59240;BME280;45010;53.640;10.578;2023-02-19T09:18:40;101274.59;;;23.50;34.37
59240;BME280;45010;53.640;10.578;2023-02-19T09:21:42;101273.41;;;23.46;34.92
59240;BME280;45010;53.640;10.578;2023-02-19T09:24:43;101286.91;;;23.51;35.18
59240;BME280;45010;53.640;10.578;2023-02-19T09:27:43;101295.88;;;23.50;35.32
59240;BME280;45010;53.640;10.578;2023-02-19T09:30:43;101292.44;;;23.43;34.92
59240;BME280;45010;53.640;10.578;2023-02-19T09:33:45;101305.53;;;23.51;34.72
59240;BME280;45010;53.640;10.578;2023-02-19T09:36:48;101304.13;;;23.42;34.94
59240;BME280;45010;53.640;10.578;2023-02-19T09:39:48;101313.53;;;23.51;34.60
59240;BME280;45010;53.640;10.578;2023-02-19T09:42:49;101290.22;;;23.33;34.84
59240;BME280;45010;53.640;10.578;2023-02-19T09:46:03;101312.50;;;23.53;34.94
59240;BME280;45010;53.640;10.578;2023-02-19T09:49:17;101313.53;;;23.51;34.93
59240;BME280;45010;53.640;10.578;2023-02-19T09:52:27;101324.16;;;23.51;35.14
59240;BME280;45010;53.640;10.578;2023-02-19T09:55:35;101328.66;;;23.44;35.12
59240;BME280;45010;53.640;10.578;2023-02-19T09:58:46;101327.44;;;23.47;34.72
59240;BME280;45010;53.640;10.578;2023-02-19T10:01:53;101331.13;;;23.46;34.75
59240;BME280;45010;53.640;10.578;2023-02-19T10:04:56;101349.13;;;23.50;35.02
59240;BME280;45010;53.640;10.578;2023-02-19T10:07:56;101334.63;;;23.46;34.98
59240;BME280;45010;53.640;10.578;2023-02-19T10:10:59;101316.19;;;23.38;35.03
59240;BME280;45010;53.640;10.578;2023-02-19T10:14:09;101338.91;;;23.47;35.20
59240;BME280;45010;53.640;10.578;2023-02-19T10:17:22;101349.56;;;23.47;34.98
59240;BME280;45010;53.640;10.578;2023-02-19T10:20:24;101356.53;;;23.48;34.83
59240;BME280;45010;53.640;10.578;2023-02-19T10:23:27;101376.38;;;23.53;35.07
59240;BME280;45010;53.640;10.578;2023-02-19T10:26:27;101374.75;;;23.51;35.10
59240;BME280;45010;53.640;10.578;2023-02-19T10:29:30;101383.13;;;23.48;35.55
59240;BME280;45010;53.640;10.578;2023-02-19T10:32:31;101386.84;;;23.54;35.45
59240;BME280;45010;53.640;10.578;2023-02-19T10:35:35;101391.72;;;23.50;35.81
59240;BME280;45010;53.640;10.578;2023-02-19T10:38:38;101397.69;;;23.53;36.05
59240;BME280;45010;53.640;10.578;2023-02-19T10:41:39;101390.31;;;23.48;35.90
59240;BME280;45010;53.640;10.578;2023-02-19T10:44:43;101417.72;;;23.62;36.03
59240;BME280;45010;53.640;10.578;2023-02-19T10:47:45;101405.44;;;23.61;35.88
59240;BME280;45010;53.640;10.578;2023-02-19T10:50:50;101400.13;;;23.61;36.00
59240;BME280;45010;53.640;10.578;2023-02-19T10:54:15;101394.19;;;23.59;35.91
59240;BME280;45010;53.640;10.578;2023-02-19T11:00:29;101414.22;;;23.82;35.57
59240;BME280;45010;53.640;10.578;2023-02-19T11:03:29;101413.78;;;23.85;35.71
59240;BME280;45010;53.640;10.578;2023-02-19T11:06:30;101413.38;;;23.88;35.74
59240;BME280;45010;53.640;10.578;2023-02-19T11:09:37;101413.38;;;23.88;35.49
59240;BME280;45010;53.640;10.578;2023-02-19T11:12:38;101433.44;;;23.97;35.65
59240;BME280;45010;53.640;10.578;2023-02-19T11:15:39;101443.69;;;24.00;35.76
59240;BME280;45010;53.640;10.578;2023-02-19T11:18:40;101412.16;;;23.90;35.44
59240;BME280;45010;53.640;10.578;2023-02-19T11:21:42;101442.44;;;24.10;35.53
59240;BME280;45010;53.640;10.578;2023-02-19T11:24:47;101435.66;;;24.14;35.42
59240;BME280;45010;53.640;10.578;2023-02-19T11:37:23;101450.56;;;24.28;35.41
59240;BME280;45010;53.640;10.578;2023-02-19T11:40:49;101447.28;;;24.33;35.31
59240;BME280;45010;53.640;10.578;2023-02-19T11:44:08;101444.19;;;24.36;35.20
59240;BME280;45010;53.640;10.578;2023-02-19T11:47:41;101447.25;;;24.40;33.79
59240;BME280;45010;53.640;10.578;2023-02-19T11:54:19;101467.53;;;24.41;30.89
59240;BME280;45010;53.640;10.578;2023-02-19T11:57:38;101462.06;;;24.36;30.32
59240;BME280;45010;53.640;10.578;2023-02-19T12:00:47;101478.19;;;24.41;30.40
59240;BME280;45010;53.640;10.578;2023-02-19T12:03:55;101469.19;;;24.42;30.62
59240;BME280;45010;53.640;10.578;2023-02-19T12:07:12;101445.03;;;24.37;30.37
59240;BME280;45010;53.640;10.578;2023-02-19T12:10:27;101473.06;;;24.46;30.29
59240;BME280;45010;53.640;10.578;2023-02-19T12:14:00;101472.66;;;24.49;30.19
59240;BME280;45010;53.640;10.578;2023-02-19T12:31:06;101489.84;;;24.53;29.33
59240;BME280;45010;53.640;10.578;2023-02-19T12:34:29;101496.84;;;24.54;28.93
59240;BME280;45010;53.640;10.578;2023-02-19T12:37:53;101493.13;;;24.55;28.74
59240;BME280;45010;53.640;10.578;2023-02-19T12:44:14;101473.06;;;24.46;28.01
59240;BME280;45010;53.640;10.578;2023-02-19T12:47:22;101485.34;;;24.54;27.96
59240;BME280;45010;53.640;10.578;2023-02-19T12:50:25;101460.38;;;24.41;27.92
59240;BME280;45010;53.640;10.578;2023-02-19T13:00:36;101496.00;;;24.61;27.17
59240;BME280;45010;53.640;10.578;2023-02-19T13:03:47;101495.16;;;24.60;27.37
59240;BME280;45010;53.640;10.578;2023-02-19T13:06:56;101473.84;;;24.53;27.05
59240;BME280;45010;53.640;10.578;2023-02-19T13:10:05;101481.63;;;24.62;26.75
59240;BME280;45010;53.640;10.578;2023-02-19T13:13:25;101482.66;;;24.61;26.72
59240;BME280;45010;53.640;10.578;2023-02-19T13:16:28;101484.88;;;24.64;26.44
59240;BME280;45010;53.640;10.578;2023-02-19T13:19:32;101469.72;;;24.57;26.94
59240;BME280;45010;53.640;10.578;2023-02-19T13:22:39;101461.53;;;24.52;27.76
59240;BME280;45010;53.640;10.578;2023-02-19T13:33:19;101460.28;;;24.62;28.25
59240;BME280;45010;53.640;10.578;2023-02-19T13:36:25;101458.22;;;24.64;28.31
59240;BME280;45010;53.640;10.578;2023-02-19T13:39:26;101463.53;;;24.64;28.44
59240;BME280;45010;53.640;10.578;2023-02-19T13:42:35;101463.53;;;24.64;28.51
59240;BME280;45010;53.640;10.578;2023-02-19T13:45:39;101433.25;;;24.51;28.41
59240;BME280;45010;53.640;10.578;2023-02-19T13:48:41;101446.28;;;24.66;28.51
59240;BME280;45010;53.640;10.578;2023-02-19T13:51:48;101440.78;;;24.61;28.48
59240;BME280;45010;53.640;10.578;2023-02-19T13:54:50;101454.31;;;24.66;28.44
59240;BME280;45010;53.640;10.578;2023-02-19T13:57:50;101456.16;;;24.66;28.66
59240;BME280;45010;53.640;10.578;2023-02-19T14:00:50;101459.84;;;24.65;28.57
59240;BME280;45010;53.640;10.578;2023-02-19T14:03:55;101468.06;;;24.63;28.81
59240;BME280;45010;53.640;10.578;2023-02-19T14:10:12;101469.91;;;24.63;28.99
59240;BME280;45010;53.640;10.578;2023-02-19T14:16:56;101471.34;;;24.58;29.08
59240;BME280;45010;53.640;10.578;2023-02-19T14:23:07;101489.19;;;24.65;29.49
59240;BME280;45010;53.640;10.578;2023-02-19T14:26:07;101497.19;;;24.65;29.59
59240;BME280;45010;53.640;10.578;2023-02-19T14:29:11;101464.22;;;24.52;29.68
59240;BME280;45010;53.640;10.578;2023-02-19T14:32:18;101478.69;;;24.70;29.81
59240;BME280;45010;53.640;10.578;2023-02-19T14:35:20;101466.03;;;24.58;30.00
59240;BME280;45010;53.640;10.578;2023-02-19T14:38:33;101476.66;;;24.72;29.93
59240;BME280;45010;53.640;10.578;2023-02-19T14:41:37;101488.13;;;24.72;30.01
59240;BME280;45010;53.640;10.578;2023-02-19T14:44:56;101478.28;;;24.73;30.20
59240;BME280;45010;53.640;10.578;2023-02-19T14:47:57;101466.78;;;24.72;30.07
59240;BME280;45010;53.640;10.578;2023-02-19T14:51:06;101464.94;;;24.73;29.95
59240;BME280;45010;53.640;10.578;2023-02-19T14:54:15;101460.66;;;24.72;30.03
59240;BME280;45010;53.640;10.578;2023-02-19T14:57:23;101459.59;;;24.73;29.98
59240;BME280;45010;53.640;10.578;2023-02-19T15:06:32;101451.59;;;24.73;30.43
59240;BME280;45010;53.640;10.578;2023-02-19T15:09:43;101463.06;;;24.74;30.52
59240;BME280;45010;53.640;10.578;2023-02-19T15:12:51;101465.56;;;24.68;30.49
59240;BME280;45010;53.640;10.578;2023-02-19T15:15:53;101474.56;;;24.74;30.45
59240;BME280;45010;53.640;10.578;2023-02-19T15:18:56;101472.72;;;24.75;30.58
59240;BME280;45010;53.640;10.578;2023-02-19T15:21:57;101479.06;;;24.74;30.61
59240;BME280;45010;53.640;10.578;2023-02-19T15:25:01;101468.84;;;24.70;30.82
59240;BME280;45010;53.640;10.578;2023-02-19T15:31:24;101479.91;;;24.74;30.97
59240;BME280;45010;53.640;10.578;2023-02-19T15:34:29;101460.03;;;24.70;31.00
59240;BME280;45010;53.640;10.578;2023-02-19T15:37:32;101464.31;;;24.71;30.94
59240;BME280;45010;53.640;10.578;2023-02-19T15:40:35;101477.25;;;24.74;30.83
59240;BME280;45010;53.640;10.578;2023-02-19T15:43:50;101478.03;;;24.75;31.06
59240;BME280;45010;53.640;10.578;2023-02-19T15:46:53;101477.03;;;24.76;31.05
59240;BME280;45010;53.640;10.578;2023-02-19T15:53:18;101486.88;;;24.75;30.98
59240;BME280;45010;53.640;10.578;2023-02-19T15:56:27;101479.91;;;24.74;30.95
59240;BME280;45010;53.640;10.578;2023-02-19T15:59:40;101470.50;;;24.65;31.13
59240;BME280;45010;53.640;10.578;2023-02-19T16:02:44;101491.19;;;24.76;31.14
59240;BME280;45010;53.640;10.578;2023-02-19T16:05:46;101470.94;;;24.62;31.09
59240;BME280;45010;53.640;10.578;2023-02-19T16:09:04;101490.38;;;24.76;31.10
59240;BME280;45010;53.640;10.578;2023-02-19T16:12:21;101491.19;;;24.76;31.14
59240;BME280;45010;53.640;10.578;2023-02-19T16:15:23;101491.00;;;24.71;31.12
59240;BME280;45010;53.640;10.578;2023-02-19T16:18:24;101494.88;;;24.75;31.12
59240;BME280;45010;53.640;10.578;2023-02-19T16:21:25;101493.84;;;24.76;31.32
59240;BME280;45010;53.640;10.578;2023-02-19T16:24:41;101504.50;;;24.76;31.37
59240;BME280;45010;53.640;10.578;2023-02-19T16:27:44;101509.84;;;24.76;31.11
59240;BME280;45010;53.640;10.578;2023-02-19T16:30:44;101504.50;;;24.76;31.24
59240;BME280;45010;53.640;10.578;2023-02-19T16:33:45;101491.00;;;24.71;31.35
59240;BME280;45010;53.640;10.578;2023-02-19T16:36:47;101499.19;;;24.76;31.26
59240;BME280;45010;53.640;10.578;2023-02-19T16:39:58;101495.91;;;24.74;31.32
59240;BME280;45010;53.640;10.578;2023-02-19T16:46:13;101499.22;;;24.69;31.34
59240;BME280;45010;53.640;10.578;2023-02-19T16:49:13;101522.38;;;24.76;31.18
59240;BME280;45010;53.640;10.578;2023-02-19T16:52:14;101517.66;;;24.71;31.38
59240;BME280;45010;53.640;10.578;2023-02-19T16:55:15;101534.91;;;24.75;31.60
59240;BME280;45010;53.640;10.578;2023-02-19T16:58:16;101506.66;;;24.61;31.83
59240;BME280;45010;53.640;10.578;2023-02-19T17:01:17;101510.69;;;24.70;32.00
59240;BME280;45010;53.640;10.578;2023-02-19T17:04:17;101512.31;;;24.78;32.10
59240;BME280;45010;53.640;10.578;2023-02-19T17:07:17;101518.69;;;24.77;31.96
59240;BME280;45010;53.640;10.578;2023-02-19T17:10:23;101522.16;;;24.77;32.13
59240;BME280;45010;53.640;10.578;2023-02-19T17:13:24;101516.88;;;24.70;31.87
59240;BME280;45010;53.640;10.578;2023-02-19T17:16:27;101510.50;;;24.71;32.23
59240;BME280;45010;53.640;10.578;2023-02-19T17:19:27;101513.56;;;24.75;32.48